PILOTS ONLINE: 299    ATC ONLINE: 49

KMEI

Key Field

Location

IATA MEI
City Meridian
Country  United States
Latitude 32° 19' 57" N
Longitude 88° 45' 6" W
Elevation 297 ft
Type Medium Airport

Map

Weather

METAR
2014/08/27 09:58
KMEI 270958Z AUTO 00000KT 10SM SCT075 19/17 A3004 RMK AO2 SLP169 T01890172
TAF
2014/08/27 06:27
TAF KMEI 270520Z 2706/2806 07004KT P6SM SCT060

Runways

01/19 10003 ft / 150 ft
04/22 4599 ft / 150 ft

Outbound flights

Callsign Flying to Pilot ATD/STD ETA Aircraft

Inbound flights

Callsign Flying from Pilot ATD ETA Aircraft